createdAt,value
2023-05-11T00:01:38.350Z,13.80
2023-05-11T00:04:06.658Z,13.70
2023-05-11T00:06:36.082Z,13.70
2023-05-11T00:09:06.745Z,13.60
2023-05-11T00:11:34.657Z,13.60
2023-05-11T00:14:02.741Z,13.60
2023-05-11T00:16:31.064Z,13.60
2023-05-11T00:18:59.088Z,13.60
2023-05-11T00:21:27.294Z,13.60
2023-05-11T00:23:56.984Z,13.60
2023-05-11T00:26:24.940Z,13.60
2023-05-11T00:28:52.902Z,13.60
2023-05-11T00:31:20.937Z,13.50
2023-05-11T00:33:48.812Z,13.50
2023-05-11T00:36:16.800Z,13.50
2023-05-11T00:38:44.716Z,13.50
2023-05-11T00:41:14.147Z,13.50
2023-05-11T00:43:42.479Z,14.10
2023-05-11T00:46:10.715Z,13.50
2023-05-11T00:48:38.890Z,13.50
2023-05-11T00:51:07.683Z,13.50
2023-05-11T00:53:35.645Z,13.40
2023-05-11T00:56:05.062Z,13.40
2023-05-11T00:58:34.619Z,13.40
2023-05-11T01:01:03.038Z,13.40
2023-05-11T01:03:31.499Z,13.50
2023-05-11T01:06:11.486Z,13.50
2023-05-11T01:08:48.980Z,13.50
2023-05-11T01:11:26.966Z,13.50
2023-05-11T01:14:07.671Z,13.50
2023-05-11T01:16:41.402Z,13.40
2023-05-11T01:19:21.226Z,13.40
2023-05-11T01:21:51.978Z,13.30
2023-05-11T01:24:38.412Z,13.30
2023-05-11T01:27:45.522Z,13.30
2023-05-11T01:30:29.709Z,13.30
2023-05-11T01:33:07.019Z,13.20
2023-05-11T01:35:43.072Z,13.20
2023-05-11T01:38:14.999Z,13.10
2023-05-11T01:40:51.795Z,13.10
2023-05-11T01:43:25.523Z,13.00
2023-05-11T01:46:03.122Z,13.10
2023-05-11T01:48:36.482Z,13.10
2023-05-11T01:51:06.270Z,13.20
2023-05-11T01:53:39.409Z,13.20
2023-05-11T01:56:08.628Z,13.20
2023-05-11T01:58:41.513Z,13.20
2023-05-11T02:01:12.809Z,13.20
2023-05-11T02:03:43.939Z,13.20
2023-05-11T02:06:15.612Z,13.20
2023-05-11T02:08:46.822Z,13.20
2023-05-11T02:11:16.460Z,13.20
2023-05-11T02:13:47.728Z,13.20
2023-05-11T02:16:20.080Z,13.20
2023-05-11T02:18:50.970Z,13.30
2023-05-11T02:21:20.862Z,13.20
2023-05-11T02:23:51.600Z,13.20
2023-05-11T02:26:19.842Z,13.20
2023-05-11T02:28:47.827Z,13.20
2023-05-11T02:31:24.165Z,13.20
2023-05-11T02:33:56.655Z,13.20
2023-05-11T02:36:29.324Z,13.20
2023-05-11T02:39:09.216Z,13.20
2023-05-11T02:41:44.631Z,13.20
2023-05-11T02:44:18.428Z,13.20
2023-05-11T02:46:50.834Z,13.20
2023-05-11T02:49:23.343Z,13.20
2023-05-11T02:51:55.630Z,13.20
2023-05-11T02:54:26.209Z,13.20
2023-05-11T02:56:57.665Z,13.10
2023-05-11T02:59:26.531Z,13.20
2023-05-11T03:01:56.816Z,13.20
2023-05-11T03:04:25.417Z,13.20
2023-05-11T03:06:53.566Z,13.20
2023-05-11T03:09:21.567Z,14.40
2023-05-11T03:11:51.755Z,13.20
2023-05-11T03:14:20.721Z,13.20
2023-05-11T03:16:49.824Z,13.20
2023-05-11T03:19:19.891Z,13.10
2023-05-11T03:21:48.828Z,13.10
2023-05-11T03:24:18.963Z,13.10
2023-05-11T03:26:48.777Z,13.10
2023-05-11T03:29:18.733Z,13.10
2023-05-11T03:31:48.945Z,13.10
2023-05-11T03:34:20.744Z,13.10
2023-05-11T03:36:53.593Z,13.00
2023-05-11T03:39:24.335Z,13.00
2023-05-11T03:41:55.209Z,13.10
2023-05-11T03:44:25.785Z,13.10
2023-05-11T03:46:56.525Z,13.00
2023-05-11T03:49:26.907Z,13.00
2023-05-11T03:51:55.927Z,13.00
2023-05-11T03:54:26.157Z,13.10
2023-05-11T03:56:54.207Z,13.10
2023-05-11T03:59:23.501Z,13.10
2023-05-11T04:01:53.881Z,13.10
2023-05-11T04:04:22.189Z,13.10
2023-05-11T04:06:52.826Z,13.10
2023-05-11T04:09:22.915Z,13.00
2023-05-11T04:11:52.826Z,13.10
2023-05-11T04:14:21.074Z,13.20
2023-05-11T04:16:49.327Z,13.30
2023-05-11T04:19:17.381Z,13.20
2023-05-11T04:21:46.678Z,13.20
2023-05-11T04:24:15.961Z,13.20
2023-05-11T04:26:44.101Z,13.20
2023-05-11T04:29:12.008Z,13.20
2023-05-11T04:31:39.940Z,13.20
2023-05-11T04:34:08.739Z,13.30
2023-05-11T04:36:37.970Z,13.30
2023-05-11T04:39:07.808Z,13.30
2023-05-11T04:41:39.770Z,13.30
2023-05-11T04:44:08.717Z,13.30
2023-05-11T04:46:38.417Z,13.30
2023-05-11T04:49:06.989Z,13.30
2023-05-11T04:51:37.275Z,13.30
2023-05-11T04:54:05.294Z,13.30
2023-05-11T04:56:33.308Z,13.30
2023-05-11T04:59:05.271Z,13.40
2023-05-11T05:01:33.773Z,13.40
2023-05-11T05:04:01.911Z,13.50
2023-05-11T05:06:29.797Z,13.50
2023-05-11T05:08:57.865Z,13.50
2023-05-11T05:11:26.968Z,13.50
2023-05-11T05:13:56.101Z,13.60
2023-05-11T05:16:25.881Z,13.60
2023-05-11T05:18:54.033Z,13.70
2023-05-11T05:21:22.021Z,13.70
2023-05-11T05:23:50.343Z,13.70
2023-05-11T05:26:18.239Z,13.80
2023-05-11T05:28:47.702Z,13.80
2023-05-11T05:31:16.119Z,13.80
2023-05-11T05:33:45.460Z,13.90
2023-05-11T05:36:13.445Z,13.90
2023-05-11T05:38:44.179Z,14.00
2023-05-11T05:41:12.458Z,14.00
2023-05-11T05:43:43.257Z,13.90
2023-05-11T05:46:11.254Z,13.90
2023-05-11T05:48:39.292Z,13.90
2023-05-11T05:51:09.041Z,13.90
2023-05-11T05:53:37.519Z,13.90
2023-05-11T05:56:06.458Z,13.90
2023-05-11T05:58:34.415Z,14.00
2023-05-11T06:01:02.488Z,13.90
2023-05-11T06:03:30.507Z,14.00
2023-05-11T06:05:58.637Z,14.00
2023-05-11T06:08:28.132Z,14.00
2023-05-11T06:10:56.745Z,14.00
2023-05-11T06:13:25.130Z,14.10
2023-05-11T06:15:53.216Z,14.00
2023-05-11T06:18:32.316Z,14.00
2023-05-11T06:21:02.143Z,14.00
2023-05-11T06:23:33.981Z,14.00
2023-05-11T06:26:01.960Z,14.00
2023-05-11T06:28:32.402Z,14.00
2023-05-11T06:31:04.619Z,14.00
2023-05-11T06:33:36.240Z,14.00
2023-05-11T06:36:08.123Z,14.00
2023-05-11T06:38:38.820Z,14.00
2023-05-11T06:41:11.198Z,14.10
2023-05-11T06:43:39.249Z,14.10
2023-05-11T06:46:18.852Z,14.00
2023-05-11T06:48:47.055Z,14.10
2023-05-11T06:51:14.946Z,14.00
2023-05-11T06:53:46.532Z,14.00
2023-05-11T06:56:14.468Z,13.90
2023-05-11T06:58:43.017Z,13.90
2023-05-11T07:01:12.550Z,13.90
2023-05-11T07:03:40.451Z,13.80
2023-05-11T07:06:08.704Z,13.70
2023-05-11T07:08:36.616Z,13.70
2023-05-11T07:11:06.017Z,13.80
2023-05-11T07:13:34.228Z,13.80
2023-05-11T07:16:02.573Z,13.80
2023-05-11T07:18:30.671Z,13.90
2023-05-11T07:20:58.631Z,13.80
2023-05-11T07:23:26.634Z,13.80
2023-05-11T07:25:57.366Z,13.90
2023-05-11T07:28:27.074Z,13.90
2023-05-11T07:30:55.024Z,14.00
2023-05-11T07:33:23.729Z,14.00
2023-05-11T07:35:52.759Z,14.00
2023-05-11T07:38:20.899Z,14.00
2023-05-11T07:40:48.867Z,14.10
2023-05-11T07:43:16.810Z,14.10
2023-05-11T07:45:46.088Z,14.10
2023-05-11T07:48:14.101Z,14.20
2023-05-11T07:50:42.518Z,14.30
2023-05-11T07:53:10.448Z,14.30
2023-05-11T07:55:38.448Z,14.30
2023-05-11T07:58:06.603Z,14.40
2023-05-11T08:00:35.991Z,14.40
2023-05-11T08:03:06.340Z,14.40
2023-05-11T08:05:37.397Z,14.40
2023-05-11T08:08:06.037Z,14.50
2023-05-11T08:10:33.951Z,14.50
2023-05-11T08:13:02.611Z,14.50
2023-05-11T08:15:30.990Z,14.50
2023-05-11T08:17:59.000Z,14.50
2023-05-11T08:20:28.517Z,14.40
2023-05-11T08:22:56.429Z,14.40
2023-05-11T08:25:24.773Z,14.40
2023-05-11T08:27:52.663Z,14.50
2023-05-11T08:30:20.851Z,14.50
2023-05-11T08:32:57.687Z,14.50
2023-05-11T08:35:26.537Z,14.50
2023-05-11T08:37:55.734Z,14.50
2023-05-11T08:40:28.506Z,14.60
2023-05-11T08:42:57.686Z,14.70
2023-05-11T08:45:27.544Z,14.70
2023-05-11T08:47:55.942Z,14.70
2023-05-11T08:50:24.036Z,14.80
2023-05-11T08:52:52.006Z,14.70
2023-05-11T08:55:23.657Z,14.70
2023-05-11T08:57:54.833Z,14.80
2023-05-11T09:00:24.519Z,14.90
2023-05-11T09:02:53.407Z,14.90
2023-05-11T09:05:21.977Z,14.90
2023-05-11T09:07:55.321Z,14.90
2023-05-11T09:10:25.325Z,14.90
2023-05-11T09:12:53.281Z,14.80
2023-05-11T09:15:21.471Z,14.90
2023-05-11T09:17:49.729Z,14.90
2023-05-11T09:20:28.009Z,15.00
2023-05-11T09:22:56.640Z,15.20
2023-05-11T09:25:27.932Z,15.30
2023-05-11T09:27:55.800Z,15.40
2023-05-11T09:30:24.824Z,15.50
2023-05-11T09:32:55.846Z,15.60
2023-05-11T09:35:26.504Z,16.20
2023-05-11T09:38:07.776Z,16.20
2023-05-11T09:40:39.731Z,16.50
2023-05-11T09:43:19.198Z,17.00
2023-05-11T09:45:53.060Z,17.40
2023-05-11T09:48:31.589Z,17.70
2023-05-11T09:51:07.016Z,17.90
2023-05-11T09:53:43.103Z,17.80
2023-05-11T09:56:13.860Z,17.70
2023-05-11T09:58:51.109Z,17.70
2023-05-11T10:01:30.112Z,17.80
2023-05-11T10:04:13.153Z,17.90
2023-05-11T10:06:50.373Z,17.80
2023-05-11T10:09:24.387Z,17.90
2023-05-11T10:11:57.989Z,18.00
2023-05-11T10:14:29.270Z,17.90
2023-05-11T10:16:59.555Z,17.60
2023-05-11T10:19:28.569Z,17.50
2023-05-11T10:21:58.260Z,17.30
2023-05-11T10:24:27.128Z,17.10
2023-05-11T10:26:58.786Z,17.10
2023-05-11T10:29:27.673Z,17.20
2023-05-11T10:31:58.935Z,17.40
2023-05-11T10:34:29.330Z,17.60
2023-05-11T10:37:01.683Z,17.60
2023-05-11T10:39:30.999Z,17.60
2023-05-11T10:42:19.936Z,17.60
2023-05-11T10:45:24.770Z,17.60
2023-05-11T10:48:36.951Z,17.60
2023-05-11T10:51:31.031Z,17.80
2023-05-11T10:54:27.453Z,17.90
2023-05-11T10:57:16.511Z,17.80
2023-05-11T11:00:43.372Z,17.60
2023-05-11T11:03:12.848Z,17.50
2023-05-11T11:05:43.850Z,17.50
2023-05-11T11:08:12.361Z,17.60
2023-05-11T11:10:45.932Z,17.60
2023-05-11T11:13:18.202Z,17.70
2023-05-11T11:16:15.477Z,17.80
2023-05-11T11:18:44.432Z,18.00
2023-05-11T11:21:15.650Z,18.40
2023-05-11T11:23:48.828Z,18.80
2023-05-11T11:26:19.855Z,19.10
2023-05-11T11:29:12.080Z,19.50
2023-05-11T11:31:41.740Z,19.70
2023-05-11T11:34:38.708Z,19.60
2023-05-11T11:37:09.721Z,19.30
2023-05-11T11:40:14.030Z,19.30
2023-05-11T11:42:44.284Z,19.00
2023-05-11T11:45:32.359Z,18.90
2023-05-11T11:48:15.756Z,18.70
2023-05-11T11:50:46.903Z,18.40
2023-05-11T11:54:00.597Z,18.20
2023-05-11T11:56:43.656Z,18.00
2023-05-11T11:59:16.286Z,17.80
2023-05-11T12:01:46.936Z,17.70
2023-05-11T12:04:41.885Z,17.80
2023-05-11T12:07:11.237Z,18.00
2023-05-11T12:09:41.918Z,18.30
2023-05-11T12:12:11.547Z,18.70
2023-05-11T12:14:41.978Z,18.90
2023-05-11T12:17:15.799Z,19.10
2023-05-11T12:19:45.555Z,19.00
2023-05-11T12:22:16.120Z,19.20
2023-05-11T12:24:44.925Z,19.40
2023-05-11T12:27:13.307Z,19.90
2023-05-11T12:29:41.573Z,20.30
2023-05-11T12:32:14.569Z,20.10
2023-05-11T12:34:42.486Z,19.60
2023-05-11T12:37:10.940Z,19.20
2023-05-11T12:39:39.593Z,19.00
2023-05-11T12:42:07.670Z,18.90
2023-05-11T12:44:36.316Z,18.80
2023-05-11T12:47:05.153Z,18.50
2023-05-11T12:49:34.776Z,18.40
2023-05-11T12:52:07.911Z,18.60
2023-05-11T12:54:38.698Z,18.70
2023-05-11T12:57:09.396Z,18.40
2023-05-11T12:59:41.273Z,18.50
2023-05-11T13:02:17.288Z,18.70
2023-05-11T13:04:48.751Z,19.00
2023-05-11T13:07:29.748Z,19.10
2023-05-11T13:09:58.969Z,19.00
2023-05-11T13:12:30.206Z,18.90
2023-05-11T13:15:11.313Z,19.30
2023-05-11T13:17:41.634Z,19.60
2023-05-11T13:20:30.390Z,19.90
2023-05-11T13:23:07.857Z,20.10
2023-05-11T13:25:51.777Z,19.80
2023-05-11T13:28:23.326Z,19.30
2023-05-11T13:30:52.664Z,19.30
2023-05-11T13:33:20.978Z,19.40
2023-05-11T13:35:50.558Z,19.50
2023-05-11T13:38:18.438Z,19.70
2023-05-11T13:40:46.859Z,19.70
2023-05-11T13:43:14.893Z,19.20
2023-05-11T13:45:42.911Z,19.00
2023-05-11T13:48:11.180Z,18.90
2023-05-11T13:50:39.699Z,19.00
2023-05-11T13:53:10.611Z,19.10
2023-05-11T13:55:40.238Z,19.20
2023-05-11T13:58:08.305Z,19.30
2023-05-11T14:00:36.715Z,19.30
2023-05-11T14:03:05.523Z,19.10
2023-05-11T14:05:33.834Z,19.20
2023-05-11T14:08:01.906Z,19.20
2023-05-11T14:10:31.170Z,19.10
2023-05-11T14:12:59.221Z,19.10
2023-05-11T14:15:27.419Z,19.10
2023-05-11T14:17:57.963Z,18.90
2023-05-11T14:20:25.966Z,19.00
2023-05-11T14:22:54.295Z,19.40
2023-05-11T14:25:22.537Z,19.60
2023-05-11T14:27:54.445Z,19.70
2023-05-11T14:30:22.654Z,19.80
2023-05-11T14:32:52.581Z,19.70
2023-05-11T14:35:21.277Z,19.50
2023-05-11T14:37:49.332Z,18.90
2023-05-11T14:40:18.151Z,18.20
2023-05-11T14:42:46.073Z,16.70
2023-05-11T14:45:15.674Z,15.30
2023-05-11T14:47:43.669Z,14.60
2023-05-11T14:50:12.059Z,14.40
2023-05-11T14:52:39.952Z,14.10
2023-05-11T14:55:09.566Z,13.90
2023-05-11T14:57:37.512Z,13.90
2023-05-11T15:00:08.589Z,13.80
2023-05-11T15:02:38.121Z,13.80
2023-05-11T15:05:07.358Z,13.80
2023-05-11T15:07:36.666Z,13.80
2023-05-11T15:10:05.737Z,13.90
2023-05-11T15:12:33.602Z,13.90
2023-05-11T15:15:01.657Z,14.10
2023-05-11T15:17:29.565Z,14.20
2023-05-11T15:19:58.790Z,14.20
2023-05-11T15:22:26.820Z,14.30
2023-05-11T15:24:55.978Z,14.40
2023-05-11T15:27:23.994Z,14.50
2023-05-11T15:29:51.869Z,14.60
2023-05-11T15:32:20.439Z,14.80
2023-05-11T15:34:59.068Z,14.80
2023-05-11T15:37:29.248Z,14.90
2023-05-11T15:39:57.173Z,15.00
2023-05-11T15:42:25.571Z,15.20
2023-05-11T15:44:53.490Z,15.20
2023-05-11T15:47:21.512Z,15.30
2023-05-11T15:49:49.520Z,15.50
2023-05-11T15:52:17.560Z,15.60
2023-05-11T15:54:46.880Z,15.60
2023-05-11T15:57:17.739Z,15.70
2023-05-11T15:59:45.660Z,15.80
2023-05-11T16:02:13.580Z,15.70
2023-05-11T16:04:41.770Z,15.80
2023-05-11T16:07:09.870Z,15.90
2023-05-11T16:09:37.772Z,15.90
2023-05-11T16:12:08.586Z,15.80
2023-05-11T16:14:36.561Z,15.90
2023-05-11T16:17:04.747Z,15.90
2023-05-11T16:19:32.708Z,15.80
2023-05-11T16:22:00.615Z,15.70
2023-05-11T16:24:30.967Z,15.80
2023-05-11T16:27:00.572Z,15.90
2023-05-11T16:29:29.758Z,16.00
2023-05-11T16:31:58.234Z,16.10
2023-05-11T16:34:27.170Z,16.20
2023-05-11T16:36:56.740Z,16.30
2023-05-11T16:39:26.689Z,16.40
2023-05-11T16:41:54.557Z,16.50
2023-05-11T16:44:22.757Z,16.50
2023-05-11T16:46:52.420Z,16.50
2023-05-11T16:49:20.567Z,16.50
2023-05-11T16:51:48.485Z,16.50
2023-05-11T16:54:19.790Z,16.50
2023-05-11T16:56:47.652Z,16.40
2023-05-11T16:59:16.063Z,16.10
2023-05-11T17:01:45.647Z,16.00
2023-05-11T17:04:15.110Z,16.00
2023-05-11T17:06:43.524Z,16.00
2023-05-11T17:09:11.619Z,15.60
2023-05-11T17:11:39.498Z,15.20
2023-05-11T17:14:07.349Z,15.30
2023-05-11T17:16:35.255Z,15.10
2023-05-11T17:19:03.455Z,15.10
2023-05-11T17:21:32.733Z,15.00
2023-05-11T17:24:01.286Z,14.90
2023-05-11T17:26:43.192Z,14.90
2023-05-11T17:29:11.992Z,14.90
2023-05-11T17:31:40.110Z,15.00
2023-05-11T17:34:08.985Z,14.90
2023-05-11T17:36:38.983Z,14.80
2023-05-11T17:39:06.984Z,14.80
2023-05-11T17:41:35.222Z,14.80
2023-05-11T17:44:06.511Z,14.80
2023-05-11T17:46:34.751Z,14.80
2023-05-11T17:49:02.804Z,14.80
2023-05-11T17:51:31.186Z,14.70
2023-05-11T17:54:00.465Z,14.70
2023-05-11T17:56:28.322Z,14.60
2023-05-11T17:58:56.290Z,14.60
2023-05-11T18:01:24.638Z,14.60
2023-05-11T18:03:52.743Z,14.50
2023-05-11T18:06:20.878Z,14.50
2023-05-11T18:08:49.108Z,14.50
2023-05-11T18:11:18.397Z,14.50
2023-05-11T18:13:49.019Z,14.50
2023-05-11T18:16:18.541Z,14.50
2023-05-11T18:18:46.504Z,14.50
2023-05-11T18:21:14.518Z,14.50
2023-05-11T18:23:42.729Z,14.50
2023-05-11T18:26:11.156Z,14.50
2023-05-11T18:28:40.520Z,14.50
2023-05-11T18:31:08.704Z,14.50
2023-05-11T18:33:36.606Z,14.70
2023-05-11T18:36:05.202Z,14.80
2023-05-11T18:38:33.137Z,14.80
2023-05-11T18:41:05.814Z,14.80
2023-05-11T18:43:34.250Z,14.70
2023-05-11T18:46:08.495Z,14.60
2023-05-11T18:48:39.810Z,14.50
2023-05-11T18:51:08.048Z,14.40
2023-05-11T18:53:35.920Z,14.20
2023-05-11T18:56:03.847Z,14.10
2023-05-11T18:58:32.266Z,14.10
2023-05-11T19:01:00.809Z,14.00
2023-05-11T19:03:31.918Z,13.90
2023-05-11T19:06:01.597Z,13.80
2023-05-11T19:08:29.997Z,13.80
2023-05-11T19:10:57.959Z,13.80
2023-05-11T19:13:25.920Z,13.70
2023-05-11T19:15:54.004Z,13.70
2023-05-11T19:18:21.918Z,13.70
2023-05-11T19:20:51.332Z,13.60
2023-05-11T19:23:19.405Z,13.60
2023-05-11T19:25:47.292Z,13.50
2023-05-11T19:28:15.165Z,13.50
2023-05-11T19:30:43.095Z,13.40
2023-05-11T19:33:11.724Z,13.40
2023-05-11T19:35:40.449Z,13.30
2023-05-11T19:38:10.247Z,13.30
2023-05-11T19:40:45.936Z,13.30
2023-05-11T19:43:14.533Z,13.30
2023-05-11T19:45:43.543Z,13.20
2023-05-11T19:48:12.462Z,13.10
2023-05-11T19:50:40.542Z,13.10
2023-05-11T19:53:09.830Z,13.00
2023-05-11T19:55:37.907Z,12.90
2023-05-11T19:58:06.837Z,12.90
2023-05-11T20:00:35.016Z,12.80
2023-05-11T20:03:03.262Z,12.80
2023-05-11T20:05:31.245Z,12.90
2023-05-11T20:07:59.518Z,12.80
2023-05-11T20:10:28.963Z,12.70
2023-05-11T20:12:58.025Z,12.60
2023-05-11T20:15:26.195Z,12.60
2023-05-11T20:17:54.510Z,12.60
2023-05-11T20:20:22.431Z,12.60
2023-05-11T20:22:50.321Z,12.50
2023-05-11T20:25:19.117Z,12.50
2023-05-11T20:27:48.583Z,12.40
2023-05-11T20:30:17.074Z,12.40
2023-05-11T20:35:16.597Z,12.30
2023-05-11T20:37:44.566Z,12.30
2023-05-11T20:40:13.993Z,12.20
2023-05-11T20:42:41.952Z,12.20
2023-05-11T20:45:11.860Z,12.10
2023-05-11T20:47:39.838Z,12.00
2023-05-11T20:50:09.953Z,12.00
2023-05-11T20:52:38.008Z,12.00
2023-05-11T20:55:07.633Z,12.00
2023-05-11T20:57:35.520Z,12.00
2023-05-11T21:00:07.321Z,12.00
2023-05-11T21:02:36.909Z,12.10
2023-05-11T21:05:04.960Z,12.10
2023-05-11T21:07:32.851Z,12.20
2023-05-11T21:10:01.900Z,12.10
2023-05-11T21:12:30.167Z,12.20
2023-05-11T21:14:58.130Z,12.20
2023-05-11T21:17:26.093Z,12.20
2023-05-11T21:19:55.347Z,12.20
2023-05-11T21:22:23.224Z,12.30
2023-05-11T21:24:51.164Z,12.30
2023-05-11T21:27:19.048Z,12.30
2023-05-11T21:29:48.129Z,12.30
2023-05-11T21:32:16.379Z,12.40
2023-05-11T21:34:44.342Z,12.30
2023-05-11T21:37:14.660Z,12.40
2023-05-11T21:39:42.674Z,12.40
2023-05-11T21:42:10.690Z,12.40
2023-05-11T21:44:38.574Z,12.50
2023-05-11T21:47:07.167Z,12.50
2023-05-11T21:49:36.583Z,12.50
2023-05-11T21:52:05.821Z,12.40
2023-05-11T21:54:35.286Z,12.50
2023-05-11T21:57:03.629Z,12.40
2023-05-11T21:59:31.590Z,12.50
2023-05-11T22:01:59.566Z,12.40
2023-05-11T22:04:27.762Z,12.50
2023-05-11T22:07:01.011Z,12.50
2023-05-11T22:09:29.956Z,12.50
2023-05-11T22:11:59.239Z,12.50
2023-05-11T22:14:27.153Z,12.50
2023-05-11T22:16:55.115Z,12.50
2023-05-11T22:19:22.984Z,12.60
2023-05-11T22:21:50.983Z,12.60
2023-05-11T22:24:18.988Z,12.60
2023-05-11T22:26:46.886Z,12.60
2023-05-11T22:29:16.296Z,12.60
2023-05-11T22:31:46.129Z,12.50
2023-05-11T22:34:14.360Z,12.50
2023-05-11T22:36:42.282Z,12.50
2023-05-11T22:39:11.299Z,12.50
2023-05-11T22:41:39.472Z,12.50
2023-05-11T22:44:07.542Z,12.50
2023-05-11T22:46:37.084Z,12.50
2023-05-11T22:49:05.287Z,12.50
2023-05-11T22:51:33.148Z,12.50
2023-05-11T22:54:01.220Z,12.50
2023-05-11T22:56:30.546Z,12.50
2023-05-11T22:58:59.832Z,12.50
2023-05-11T23:01:28.420Z,12.50
2023-05-11T23:03:58.104Z,12.50
2023-05-11T23:06:26.497Z,12.50
2023-05-11T23:08:54.480Z,12.50
2023-05-11T23:11:22.433Z,12.50
2023-05-11T23:13:50.313Z,12.50
2023-05-11T23:16:19.204Z,12.70
2023-05-11T23:18:47.390Z,12.50
2023-05-11T23:21:16.809Z,12.50
2023-05-11T23:23:44.660Z,12.50
2023-05-11T23:26:12.713Z,12.50
2023-05-11T23:28:41.308Z,12.50
2023-05-11T23:31:09.275Z,12.50
2023-05-11T23:33:37.544Z,12.50
2023-05-11T23:36:06.268Z,12.50
2023-05-11T23:38:35.788Z,12.50
2023-05-11T23:41:04.132Z,12.50
2023-05-11T23:43:33.238Z,12.50
2023-05-11T23:46:02.439Z,12.50
2023-05-11T23:48:30.481Z,12.60
2023-05-11T23:50:58.783Z,12.60
2023-05-11T23:53:26.743Z,12.60
2023-05-11T23:55:56.007Z,12.60
2023-05-11T23:58:23.908Z,12.60
